createdAt,value
2023-01-04T00:00:39.187Z,100613.03
2023-01-04T00:01:41.488Z,100616.50
2023-01-04T00:02:44.028Z,100606.09
2023-01-04T00:03:46.899Z,100611.38
2023-01-04T00:04:49.241Z,100603.59
2023-01-04T00:05:51.476Z,100607.03
2023-01-04T00:06:54.398Z,100601.03
2023-01-04T00:07:58.629Z,100597.53
2023-01-04T00:09:00.841Z,100597.50
2023-01-04T00:10:03.290Z,100594.03
2023-01-04T00:11:08.582Z,100594.03
2023-01-04T00:12:10.927Z,100593.97
2023-01-04T00:13:13.151Z,100588.81
2023-01-04T00:14:17.181Z,100599.09
2023-01-04T00:15:19.404Z,100595.59
2023-01-04T00:16:24.297Z,100596.53
2023-01-04T00:17:26.555Z,100590.63
2023-01-04T00:18:30.384Z,100597.56
2023-01-04T00:19:32.770Z,100600.06
2023-01-04T00:20:35.008Z,100597.31
2023-01-04T00:21:37.178Z,100588.75
2023-01-04T00:22:39.394Z,100592.97
2023-01-04T00:23:42.912Z,100597.28
2023-01-04T00:24:45.708Z,100595.50
2023-01-04T00:25:47.955Z,100586.97
2023-01-04T00:26:50.302Z,100586.16
2023-01-04T00:27:52.791Z,100585.34
2023-01-04T00:28:57.044Z,100588.81
2023-01-04T00:29:59.268Z,100594.06
2023-01-04T00:31:03.873Z,100587.19
2023-01-04T00:32:06.230Z,100588.06
2023-01-04T00:33:08.444Z,100588.97
2023-01-04T00:34:13.453Z,100584.69
2023-01-04T00:35:33.187Z,100582.94
2023-01-04T00:36:38.126Z,100572.56
2023-01-04T00:37:40.367Z,100571.66
2023-01-04T00:38:42.873Z,100574.28
2023-01-04T00:39:45.085Z,100569.94
2023-01-04T00:40:47.355Z,100572.56
2023-01-04T00:42:00.136Z,100571.66
2023-01-04T00:43:02.664Z,100569.06
2023-01-04T00:44:09.138Z,100565.63
2023-01-04T00:45:11.387Z,100565.50
2023-01-04T00:46:13.682Z,100562.72
2023-01-04T00:47:15.859Z,100568.84
2023-01-04T00:48:18.116Z,100567.19
2023-01-04T00:49:23.392Z,100565.50
2023-01-04T00:50:25.689Z,100571.66
2023-01-04T00:51:29.862Z,100569.91
2023-01-04T00:52:32.062Z,100568.22
2023-01-04T00:53:34.380Z,100569.94
2023-01-04T00:54:36.624Z,100573.41
2023-01-04T00:55:38.864Z,100571.69
2023-01-04T00:56:41.497Z,100569.09
2023-01-04T00:57:43.707Z,100570.00
2023-01-04T00:58:46.026Z,100567.38
2023-01-04T00:59:48.173Z,100577.72
2023-01-04T01:00:50.668Z,100568.19
2023-01-04T01:01:53.356Z,100567.34
2023-01-04T01:02:55.902Z,100573.41
2023-01-04T01:04:00.567Z,100566.47
2023-01-04T01:05:02.812Z,100569.84
2023-01-04T01:06:06.441Z,100568.97
2023-01-04T01:07:08.665Z,100579.31
2023-01-04T01:08:26.176Z,100568.97
2023-01-04T01:09:28.411Z,100577.53
2023-01-04T01:10:30.595Z,100578.16
2023-01-04T01:11:33.243Z,100569.56
2023-01-04T01:12:35.541Z,100569.50
2023-01-04T01:13:38.357Z,100580.59
2023-01-04T01:14:40.601Z,100570.84
2023-01-04T01:15:42.913Z,100578.50
2023-01-04T01:16:55.210Z,100581.09
2023-01-04T01:17:59.083Z,100581.94
2023-01-04T01:19:01.283Z,100579.47
2023-01-04T01:20:04.659Z,100575.97
2023-01-04T01:21:09.429Z,100579.41
2023-01-04T01:22:11.586Z,100574.31
2023-01-04T01:23:15.005Z,100575.22
2023-01-04T01:24:19.530Z,100572.59
2023-01-04T01:25:21.824Z,100571.63
2023-01-04T01:26:25.409Z,100575.94
2023-01-04T01:27:28.475Z,100574.09
2023-01-04T01:28:31.145Z,100572.22
2023-01-04T01:29:33.474Z,100568.81
2023-01-04T01:30:40.607Z,100566.28
2023-01-04T01:31:42.907Z,100565.53
2023-01-04T01:32:45.126Z,100564.69
2023-01-04T01:33:49.020Z,100576.84
2023-01-04T01:34:51.299Z,100575.25
2023-01-04T01:35:53.588Z,100575.28
2023-01-04T01:36:56.292Z,100572.72
2023-01-04T01:37:58.497Z,100580.50
2023-01-04T01:39:00.830Z,100578.91
2023-01-04T01:40:03.164Z,100574.59
2023-01-04T01:41:07.443Z,100571.97
2023-01-04T01:42:18.976Z,100577.94
2023-01-04T01:43:42.603Z,100580.44
2023-01-04T01:44:45.262Z,100578.44
2023-01-04T01:45:53.083Z,100576.59
2023-01-04T01:46:55.654Z,100573.09
2023-01-04T01:48:04.963Z,100576.38
2023-01-04T01:49:30.710Z,100571.91
2023-01-04T01:50:38.908Z,100576.25
2023-01-04T01:51:41.987Z,100574.59
2023-01-04T01:52:44.300Z,100579.00
2023-01-04T01:53:49.696Z,100571.34
2023-01-04T01:55:01.144Z,100576.59
2023-01-04T01:56:06.011Z,100572.28
2023-01-04T01:57:10.634Z,100574.88
2023-01-04T01:58:37.090Z,100567.13
2023-01-04T01:59:42.575Z,100561.09
2023-01-04T02:01:38.696Z,100560.97
2023-01-04T02:02:53.713Z,100562.53
2023-01-04T02:03:56.447Z,100570.34
2023-01-04T02:05:02.023Z,100559.06
2023-01-04T02:06:08.505Z,100561.69
2023-01-04T02:07:13.139Z,100552.25
2023-01-04T02:08:16.389Z,100551.41
2023-01-04T02:09:20.393Z,100548.81
2023-01-04T02:10:24.241Z,100552.06
2023-01-04T02:11:27.068Z,100550.44
2023-01-04T02:12:29.316Z,100562.53
2023-01-04T02:13:52.349Z,100560.63
2023-01-04T02:14:54.574Z,100553.03
2023-01-04T02:16:15.211Z,100552.25
2023-01-04T02:17:36.340Z,100541.81
2023-01-04T02:18:50.544Z,100557.28
2023-01-04T02:20:11.192Z,100564.53
2023-01-04T02:21:41.792Z,100561.88
2023-01-04T02:23:02.658Z,100566.88
2023-01-04T02:24:26.092Z,100557.06
2023-01-04T02:25:49.757Z,100558.88
2023-01-04T02:26:57.441Z,100551.22
2023-01-04T02:28:03.978Z,100556.44
2023-01-04T02:29:47.972Z,100542.59
2023-01-04T02:30:57.400Z,100536.47
2023-01-04T02:32:36.779Z,100534.75
2023-01-04T02:33:56.929Z,100533.13
2023-01-04T02:35:24.305Z,100541.09
2023-01-04T02:36:54.512Z,100536.47
2023-01-04T02:38:24.299Z,100542.56
2023-01-04T02:39:32.504Z,100540.13
2023-01-04T02:40:46.213Z,100528.09
2023-01-04T02:42:15.338Z,100523.53
2023-01-04T02:43:46.989Z,100520.97
2023-01-04T02:44:57.951Z,100515.78
2023-01-04T02:46:25.894Z,100512.38
2023-01-04T02:47:46.580Z,100514.91
2023-01-04T02:49:27.419Z,100512.38
2023-01-04T02:50:37.359Z,100512.69
2023-01-04T02:51:39.635Z,100510.94
2023-01-04T02:52:41.896Z,100509.31
2023-01-04T02:53:44.106Z,100507.72
2023-01-04T02:54:49.295Z,100507.88
2023-01-04T02:56:35.322Z,100507.06
2023-01-04T02:57:43.351Z,100505.41
2023-01-04T02:59:07.111Z,100501.16
2023-01-04T03:00:18.156Z,100506.28
2023-01-04T03:02:01.423Z,100506.28
2023-01-04T03:03:36.345Z,100509.66
2023-01-04T03:05:09.192Z,100511.47
2023-01-04T03:06:23.048Z,100517.28
2023-01-04T03:07:33.804Z,100518.06
2023-01-04T03:08:47.762Z,100508.50
2023-01-04T03:09:53.240Z,100504.88
2023-01-04T03:11:26.958Z,100515.97
2023-01-04T03:12:32.878Z,100513.34
2023-01-04T03:13:42.644Z,100503.97
2023-01-04T03:14:52.104Z,100507.63
2023-01-04T03:15:59.816Z,100509.41
2023-01-04T03:17:06.929Z,100508.75
2023-01-04T03:18:18.331Z,100509.69
2023-01-04T03:19:42.305Z,100516.59
2023-01-04T03:20:47.009Z,100514.69
2023-01-04T03:21:49.326Z,100507.69
2023-01-04T03:23:19.072Z,100517.88
2023-01-04T03:24:40.135Z,100512.75
2023-01-04T03:26:05.266Z,100509.50
2023-01-04T03:27:26.837Z,100512.47
2023-01-04T03:28:51.257Z,100501.38
2023-01-04T03:30:22.922Z,100504.75
2023-01-04T03:32:06.761Z,100500.25
2023-01-04T03:33:27.775Z,100497.78
2023-01-04T03:34:48.783Z,100496.78
2023-01-04T03:35:58.233Z,100495.97
2023-01-04T03:37:06.251Z,100484.75
2023-01-04T03:38:41.308Z,100484.75
2023-01-04T03:40:07.984Z,100480.41
2023-01-04T03:41:37.170Z,100478.56
2023-01-04T03:43:15.117Z,100477.00
2023-01-04T03:45:10.316Z,100486.66
2023-01-04T03:46:50.854Z,100474.66
2023-01-04T03:48:31.489Z,100464.19
2023-01-04T03:49:48.367Z,100471.25
2023-01-04T03:50:56.911Z,100467.84
2023-01-04T03:52:02.187Z,100475.75
2023-01-04T03:53:07.361Z,100475.84
2023-01-04T03:54:20.382Z,100468.22
2023-01-04T03:55:24.077Z,100475.97
2023-01-04T03:56:29.296Z,100475.06
2023-01-04T03:57:33.299Z,100469.88
2023-01-04T03:58:36.274Z,100471.53
2023-01-04T03:59:43.818Z,100468.09
2023-01-04T04:00:47.321Z,100468.88
2023-01-04T04:01:50.139Z,100471.50
2023-01-04T04:02:52.419Z,100472.56
2023-01-04T04:04:13.936Z,100464.91
2023-01-04T04:05:40.641Z,100464.91
2023-01-04T04:07:01.942Z,100465.69
2023-01-04T04:08:22.957Z,100468.44
2023-01-04T04:09:25.406Z,100467.22
2023-01-04T04:10:27.788Z,100463.63
2023-01-04T04:11:30.130Z,100462.78
2023-01-04T04:12:32.556Z,100456.59
2023-01-04T04:13:34.802Z,100447.91
2023-01-04T04:14:37.119Z,100447.94
2023-01-04T04:15:39.900Z,100446.28
2023-01-04T04:16:42.262Z,100451.53
2023-01-04T04:17:44.545Z,100445.47
2023-01-04T04:18:48.133Z,100448.81
2023-01-04T04:19:50.338Z,100439.38
2023-01-04T04:20:58.074Z,100444.63
2023-01-04T04:22:00.292Z,100447.34
2023-01-04T04:23:02.611Z,100443.84
2023-01-04T04:24:05.311Z,100435.97
2023-01-04T04:25:08.003Z,100450.69
2023-01-04T04:26:10.449Z,100448.91
2023-01-04T04:27:12.606Z,100441.97
2023-01-04T04:28:14.807Z,100450.72
2023-01-04T04:29:17.863Z,100439.63
2023-01-04T04:30:20.136Z,100438.81
2023-01-04T04:31:22.447Z,100431.09
2023-01-04T04:32:24.747Z,100431.81
2023-01-04T04:33:27.017Z,100426.53
2023-01-04T04:34:29.213Z,100424.81
2023-01-04T04:35:31.470Z,100420.50
2023-01-04T04:36:33.724Z,100414.56
2023-01-04T04:37:37.143Z,100414.41
2023-01-04T04:38:39.479Z,100417.81
2023-01-04T04:39:41.680Z,100418.69
2023-01-04T04:41:02.751Z,100411.75
2023-01-04T04:42:05.095Z,100411.94
2023-01-04T04:43:08.408Z,100405.88
2023-01-04T04:44:13.770Z,100411.81
2023-01-04T04:45:16.016Z,100408.34
2023-01-04T04:46:18.866Z,100402.31
2023-01-04T04:47:21.072Z,100405.94
2023-01-04T04:48:23.337Z,100406.03
2023-01-04T04:49:25.628Z,100406.94
2023-01-04T04:50:27.970Z,100395.63
2023-01-04T04:51:30.242Z,100397.41
2023-01-04T04:52:32.504Z,100414.63
2023-01-04T04:53:34.796Z,100405.03
2023-01-04T04:54:37.109Z,100401.50
2023-01-04T04:55:39.429Z,100398.00
2023-01-04T04:56:41.683Z,100399.78
2023-01-04T04:57:43.908Z,100394.69
2023-01-04T04:58:46.207Z,100399.97
2023-01-04T04:59:48.444Z,100397.38
2023-01-04T05:00:50.694Z,100397.38
2023-01-04T05:01:53.019Z,100399.97
2023-01-04T05:02:58.920Z,100396.50
2023-01-04T05:04:01.222Z,100391.34
2023-01-04T05:05:03.571Z,100398.28
2023-01-04T05:06:06.325Z,100385.38
2023-01-04T05:07:12.402Z,100391.44
2023-01-04T05:08:15.153Z,100390.53
2023-01-04T05:09:17.582Z,100392.25
2023-01-04T05:10:19.887Z,100395.66
2023-01-04T05:11:42.228Z,100398.22
2023-01-04T05:13:02.410Z,100395.69
2023-01-04T05:14:04.726Z,100386.19
2023-01-04T05:15:07.351Z,100386.22
2023-01-04T05:16:10.319Z,100386.25
2023-01-04T05:17:12.528Z,100380.16
2023-01-04T05:18:17.251Z,100380.13
2023-01-04T05:19:19.409Z,100379.28
2023-01-04T05:20:21.575Z,100380.16
2023-01-04T05:21:23.830Z,100393.13
2023-01-04T05:22:26.149Z,100383.69
2023-01-04T05:23:28.561Z,100378.59
2023-01-04T05:24:30.786Z,100378.69
2023-01-04T05:25:33.767Z,100379.59
2023-01-04T05:26:35.957Z,100378.75
2023-01-04T05:27:38.395Z,100379.66
2023-01-04T05:28:40.628Z,100381.41
2023-01-04T05:30:01.196Z,100369.28
2023-01-04T05:31:03.408Z,100373.63
2023-01-04T05:32:05.850Z,100375.38
2023-01-04T05:33:09.188Z,100377.13
2023-01-04T05:34:11.933Z,100376.28
2023-01-04T05:35:16.205Z,100376.31
2023-01-04T05:36:18.399Z,100372.00
2023-01-04T05:37:20.676Z,100378.09
2023-01-04T05:38:23.431Z,100384.16
2023-01-04T05:39:25.639Z,100374.59
2023-01-04T05:40:28.065Z,100364.19
2023-01-04T05:41:48.527Z,100372.84
2023-01-04T05:42:51.141Z,100371.06
2023-01-04T05:43:53.407Z,100378.00
2023-01-04T05:44:57.383Z,100369.31
2023-01-04T05:45:59.739Z,100372.78
2023-01-04T05:47:02.111Z,100371.94
2023-01-04T05:48:04.647Z,100376.28
2023-01-04T05:49:06.816Z,100368.50
2023-01-04T05:50:10.360Z,100365.03
2023-01-04T05:51:12.806Z,100368.53
2023-01-04T05:52:15.083Z,100359.91
2023-01-04T05:53:18.264Z,100364.25
2023-01-04T05:54:21.710Z,100357.34
2023-01-04T05:55:24.207Z,100360.78
2023-01-04T05:56:26.409Z,100364.25
2023-01-04T05:57:28.671Z,100359.06
2023-01-04T05:58:31.018Z,100366.00
2023-01-04T05:59:37.257Z,100363.41
2023-01-04T06:00:43.671Z,100361.66
2023-01-04T06:01:45.979Z,100363.41
2023-01-04T06:02:48.411Z,100364.28
2023-01-04T06:03:51.095Z,100362.53
2023-01-04T06:04:58.784Z,100366.88
2023-01-04T06:06:01.830Z,100368.59
2023-01-04T06:07:04.079Z,100365.13
2023-01-04T06:08:06.401Z,100361.69
2023-01-04T06:09:08.807Z,100362.53
2023-01-04T06:10:12.892Z,100360.81
2023-01-04T06:11:15.154Z,100366.88
2023-01-04T06:12:17.455Z,100356.47
2023-01-04T06:13:20.539Z,100366.88
2023-01-04T06:14:22.722Z,100359.09
2023-01-04T06:15:24.981Z,100366.88
2023-01-04T06:16:27.331Z,100365.13
2023-01-04T06:17:29.579Z,100351.25
2023-01-04T06:18:31.817Z,100361.69
2023-01-04T06:19:34.695Z,100358.19
2023-01-04T06:20:36.937Z,100363.41
2023-01-04T06:21:39.168Z,100356.47
2023-01-04T06:22:41.689Z,100359.94
2023-01-04T06:23:43.948Z,100359.06
2023-01-04T06:24:46.238Z,100358.19
2023-01-04T06:25:48.510Z,100359.06
2023-01-04T06:26:50.949Z,100354.69
2023-01-04T06:27:53.095Z,100359.91
2023-01-04T06:28:55.315Z,100346.00
2023-01-04T06:29:57.731Z,100348.59
2023-01-04T06:31:07.648Z,100352.94
2023-01-04T06:32:10.181Z,100352.91
2023-01-04T06:33:12.371Z,100339.91
2023-01-04T06:34:15.210Z,100343.41
2023-01-04T06:35:17.387Z,100339.09
2023-01-04T06:36:20.329Z,100340.81
2023-01-04T06:37:23.189Z,100340.00
2023-01-04T06:38:25.556Z,100339.09
2023-01-04T06:39:27.863Z,100332.19
2023-01-04T06:40:30.119Z,100343.44
2023-01-04T06:41:32.362Z,100337.38
2023-01-04T06:42:46.450Z,100340.00
2023-01-04T06:43:49.133Z,100338.25
2023-01-04T06:44:51.347Z,100344.31
2023-01-04T06:45:53.741Z,100346.91
2023-01-04T06:46:56.030Z,100337.41
2023-01-04T06:47:58.258Z,100343.47
2023-01-04T06:49:00.518Z,100336.53
2023-01-04T06:50:02.945Z,100341.72
2023-01-04T06:51:05.248Z,100336.53
2023-01-04T06:52:07.521Z,100346.91
2023-01-04T06:53:09.939Z,100333.94
2023-01-04T06:54:12.205Z,100337.38
2023-01-04T06:55:14.540Z,100340.81
2023-01-04T06:56:16.805Z,100331.28
2023-01-04T06:57:19.058Z,100340.81
2023-01-04T06:58:21.305Z,100326.94
2023-01-04T06:59:23.545Z,100328.72
2023-01-04T07:03:12.668Z,100337.41
2023-01-04T07:04:09.172Z,100337.38
2023-01-04T07:05:11.519Z,100332.19
2023-01-04T07:06:13.807Z,100330.44
2023-01-04T07:07:15.976Z,100335.66
2023-01-04T07:08:18.190Z,100339.16
2023-01-04T07:09:20.388Z,100331.34
2023-01-04T07:10:22.590Z,100334.81
2023-01-04T07:11:24.886Z,100335.69
2023-01-04T07:12:27.273Z,100333.06
2023-01-04T07:13:29.495Z,100330.47
2023-01-04T07:14:31.691Z,100327.84
2023-01-04T07:15:38.635Z,100336.53
2023-01-04T07:16:42.944Z,100317.47
2023-01-04T07:17:48.034Z,100318.34
2023-01-04T07:18:50.231Z,100323.53
2023-01-04T07:19:52.710Z,100315.75
2023-01-04T07:20:55.039Z,100308.81
2023-01-04T07:21:58.664Z,100311.41
2023-01-04T07:23:00.880Z,100314.03
2023-01-04T07:24:03.228Z,100303.59
2023-01-04T07:25:05.836Z,100297.50
2023-01-04T07:26:08.111Z,100299.22
2023-01-04T07:27:11.059Z,100295.78
2023-01-04T07:28:33.374Z,100294.91
2023-01-04T07:29:35.886Z,100281.00
2023-01-04T07:30:38.164Z,100288.81
2023-01-04T07:31:40.592Z,100287.94
2023-01-04T07:32:42.845Z,100288.81
2023-01-04T07:33:45.095Z,100290.53
2023-01-04T07:34:47.384Z,100291.38
2023-01-04T07:35:49.665Z,100290.47
2023-01-04T07:36:52.313Z,100288.75
2023-01-04T07:37:58.809Z,100287.84
2023-01-04T07:39:01.825Z,100285.22
2023-01-04T07:40:04.847Z,100284.34
2023-01-04T07:41:07.003Z,100278.28
2023-01-04T07:42:10.254Z,100279.97
2023-01-04T07:43:12.452Z,100276.53
2023-01-04T07:44:15.842Z,100274.75
2023-01-04T07:45:18.144Z,100268.66
2023-01-04T07:46:22.035Z,100267.00
2023-01-04T07:47:24.499Z,100270.53
2023-01-04T07:48:29.369Z,100261.88
2023-01-04T07:49:31.679Z,100268.78
2023-01-04T07:50:34.173Z,100267.91
2023-01-04T07:51:36.475Z,100265.22
2023-01-04T07:52:38.742Z,100261.75
2023-01-04T07:53:40.954Z,100274.81
2023-01-04T07:54:43.203Z,100258.25
2023-01-04T07:55:45.619Z,100268.66
2023-01-04T07:56:48.167Z,100258.19
2023-01-04T07:57:53.229Z,100248.63
2023-01-04T07:58:57.467Z,100249.47
2023-01-04T07:59:59.800Z,100257.28
2023-01-04T08:01:09.750Z,100259.88
2023-01-04T08:02:13.123Z,100259.88
2023-01-04T08:03:15.779Z,100273.72
2023-01-04T08:04:21.808Z,100266.72
2023-01-04T08:05:25.146Z,100270.97
2023-01-04T08:06:27.553Z,100260.50
2023-01-04T08:07:29.757Z,100269.13
2023-01-04T08:08:32.170Z,100263.03
2023-01-04T08:09:34.368Z,100254.22
2023-01-04T08:10:36.693Z,100263.31
2023-01-04T08:11:39.048Z,100262.38
2023-01-04T08:12:41.286Z,100263.31
2023-01-04T08:13:44.086Z,100266.13
2023-01-04T08:14:46.280Z,100272.13
2023-01-04T08:15:55.035Z,100256.53
2023-01-04T08:16:57.314Z,100263.41
2023-01-04T08:17:59.528Z,100274.69
2023-01-04T08:19:20.405Z,100272.19
2023-01-04T08:20:22.650Z,100261.72
2023-01-04T08:21:25.661Z,100260.91
2023-01-04T08:22:27.871Z,100262.63
2023-01-04T08:23:30.174Z,100248.66
2023-01-04T08:24:32.451Z,100247.72
2023-01-04T08:25:34.666Z,100238.94
2023-01-04T08:26:36.844Z,100247.59
2023-01-04T08:27:39.123Z,100242.28
2023-01-04T08:28:42.144Z,100241.44
2023-01-04T08:29:44.498Z,100230.84
2023-01-04T08:30:46.718Z,100234.31
2023-01-04T08:31:48.978Z,100246.47
2023-01-04T08:32:53.512Z,100236.13
2023-01-04T08:33:57.162Z,100233.44
2023-01-04T08:34:59.445Z,100229.72
2023-01-04T08:36:35.280Z,100218.13
2023-01-04T08:37:37.505Z,100211.00
2023-01-04T08:40:02.290Z,100209.06
2023-01-04T08:41:31.022Z,100210.69
2023-01-04T08:42:31.591Z,100224.47
2023-01-04T08:43:35.882Z,100219.91
2023-01-04T08:44:38.397Z,100222.34
2023-01-04T08:45:40.684Z,100225.66
2023-01-04T08:46:43.123Z,100213.38
2023-01-04T08:47:45.374Z,100229.84
2023-01-04T08:48:47.621Z,100229.66
2023-01-04T08:49:49.842Z,100233.84
2023-01-04T08:50:52.040Z,100227.72
2023-01-04T08:51:54.241Z,100239.94
2023-01-04T08:52:56.458Z,100239.00
2023-01-04T08:53:59.112Z,100238.94
2023-01-04T08:55:04.369Z,100238.81
2023-01-04T08:56:09.507Z,100234.44
2023-01-04T08:57:11.754Z,100232.69
2023-01-04T08:58:13.951Z,100230.88
2023-01-04T08:59:16.278Z,100236.13
2023-01-04T09:00:21.597Z,100224.72
2023-01-04T09:01:23.916Z,100228.94
2023-01-04T09:02:28.211Z,100235.03
2023-01-04T09:03:31.112Z,100227.16
2023-01-04T09:04:33.585Z,100222.84
2023-01-04T09:05:35.957Z,100227.09
2023-01-04T09:06:39.482Z,100222.53
2023-01-04T09:07:41.828Z,100215.41
2023-01-04T09:08:44.499Z,100228.38
2023-01-04T09:09:46.860Z,100230.16
2023-01-04T09:10:49.007Z,100219.69
2023-01-04T09:11:51.282Z,100228.25
2023-01-04T09:12:53.567Z,100224.69
2023-01-04T09:14:06.397Z,100226.41
2023-01-04T09:15:09.975Z,100224.50
2023-01-04T09:16:17.868Z,100217.38
2023-01-04T09:17:20.100Z,100223.72
2023-01-04T09:18:31.449Z,100217.59
2023-01-04T09:19:34.781Z,100217.84
2023-01-04T09:20:37.458Z,100214.97
2023-01-04T09:21:39.756Z,100221.19
2023-01-04T09:22:42.282Z,100222.84
2023-01-04T09:23:45.551Z,100224.53
2023-01-04T09:24:47.728Z,100215.78
2023-01-04T09:25:50.456Z,100220.16
2023-01-04T09:26:52.710Z,100227.75
2023-01-04T09:27:55.006Z,100225.88
2023-01-04T09:28:57.347Z,100225.88
2023-01-04T09:30:00.443Z,100226.63
2023-01-04T09:31:11.500Z,100226.81
2023-01-04T09:32:16.865Z,100225.75
2023-01-04T09:33:19.269Z,100214.28
2023-01-04T09:34:21.495Z,100225.56
2023-01-04T09:35:23.808Z,100223.59
2023-01-04T09:36:26.179Z,100223.69
2023-01-04T09:37:28.763Z,100214.25
2023-01-04T09:38:33.239Z,100214.06
2023-01-04T09:39:35.543Z,100220.78
2023-01-04T09:40:47.688Z,100213.09
2023-01-04T09:41:55.800Z,100210.19
2023-01-04T09:43:21.170Z,100215.34
2023-01-04T09:45:21.917Z,100217.13
2023-01-04T09:46:13.621Z,100218.88
2023-01-04T09:47:19.600Z,100211.47
2023-01-04T09:48:26.911Z,100226.38
2023-01-04T09:49:41.317Z,100214.03
2023-01-04T09:50:54.421Z,100226.28
2023-01-04T09:52:21.734Z,100214.75
2023-01-04T09:53:31.085Z,100207.03
2023-01-04T09:54:45.538Z,100208.66
2023-01-04T09:55:50.705Z,100205.94
2023-01-04T09:56:58.579Z,100205.72
2023-01-04T09:58:08.087Z,100211.69
2023-01-04T09:59:17.027Z,100209.75
2023-01-04T10:00:30.447Z,100205.47
2023-01-04T10:01:49.708Z,100198.25
2023-01-04T10:03:28.330Z,100207.78
2023-01-04T10:04:41.119Z,100198.38
2023-01-04T10:05:43.353Z,100196.56
2023-01-04T10:06:45.764Z,100189.59
2023-01-04T10:07:48.151Z,100193.09
2023-01-04T10:08:50.420Z,100201.84
2023-01-04T10:09:52.682Z,100177.38
2023-01-04T10:11:11.313Z,100182.38
2023-01-04T10:12:36.936Z,100178.75
2023-01-04T10:14:06.676Z,100179.50
2023-01-04T10:15:27.469Z,100154.13
2023-01-04T10:21:21.806Z,100161.66
2023-01-04T10:22:40.018Z,100162.31
2023-01-04T10:23:44.986Z,100143.03
2023-01-04T10:24:55.971Z,100160.09
2023-01-04T10:26:11.570Z,100146.94
2023-01-04T10:27:42.505Z,100138.94
2023-01-04T10:29:19.526Z,100132.75
2023-01-04T10:30:40.491Z,100152.81
2023-01-04T10:32:30.599Z,100150.63
2023-01-04T10:33:39.013Z,100134.06
2023-01-04T10:34:45.809Z,100149.88
2023-01-04T10:35:49.411Z,100144.47
2023-01-04T10:36:58.370Z,100143.81
2023-01-04T10:38:03.467Z,100142.06
2023-01-04T10:39:18.125Z,100131.81
2023-01-04T10:40:20.627Z,100140.63
2023-01-04T10:41:26.774Z,100127.38
2023-01-04T10:42:40.612Z,100127.53
2023-01-04T10:44:10.598Z,100125.81
2023-01-04T10:45:27.363Z,100118.44
2023-01-04T10:46:35.891Z,100134.28
2023-01-04T10:48:03.203Z,100119.56
2023-01-04T10:49:16.379Z,100130.94
2023-01-04T10:50:39.622Z,100123.22
2023-01-04T10:51:57.476Z,100120.41
2023-01-04T10:53:07.203Z,100129.19
2023-01-04T10:54:21.430Z,100122.22
2023-01-04T10:56:25.281Z,100123.34
2023-01-04T10:57:19.387Z,100126.72
2023-01-04T10:58:31.948Z,100123.19
2023-01-04T10:59:49.727Z,100131.50
2023-01-04T11:01:00.397Z,100132.53
2023-01-04T11:02:07.838Z,100138.88
2023-01-04T11:03:19.485Z,100140.72
2023-01-04T11:04:28.879Z,100129.97
2023-01-04T11:05:48.252Z,100135.69
2023-01-04T11:07:02.536Z,100123.75
2023-01-04T11:08:15.864Z,100130.03
2023-01-04T11:09:38.541Z,100128.06
2023-01-04T11:11:14.168Z,100124.50
2023-01-04T11:12:19.102Z,100128.63
2023-01-04T11:13:23.054Z,100125.59
2023-01-04T11:14:25.720Z,100128.84
2023-01-04T11:15:29.636Z,100126.19
2023-01-04T11:16:32.221Z,100116.94
2023-01-04T11:17:35.892Z,100121.59
2023-01-04T11:18:40.732Z,100126.78
2023-01-04T11:19:43.238Z,100130.25
2023-01-04T11:20:45.454Z,100107.81
2023-01-04T11:22:09.125Z,100126.59
2023-01-04T11:23:20.754Z,100124.66
2023-01-04T11:24:32.044Z,100128.34
2023-01-04T11:25:53.632Z,100118.16
2023-01-04T11:27:04.460Z,100131.16
2023-01-04T11:28:16.056Z,100120.06
2023-01-04T11:29:40.700Z,100127.56
2023-01-04T11:30:58.761Z,100118.91
2023-01-04T11:32:07.113Z,100116.38
2023-01-04T11:33:18.901Z,100117.34
2023-01-04T11:34:45.491Z,100119.66
2023-01-04T11:35:59.169Z,100114.72
2023-01-04T11:37:01.720Z,100106.44
2023-01-04T11:38:18.163Z,100117.13
2023-01-04T11:39:25.289Z,100112.88
2023-01-04T11:40:28.508Z,100117.84
2023-01-04T11:41:30.746Z,100107.63
2023-01-04T11:42:33.075Z,100107.75
2023-01-04T11:43:37.959Z,100114.06
2023-01-04T11:44:41.904Z,100113.94
2023-01-04T11:45:58.786Z,100112.22
2023-01-04T11:47:08.291Z,100104.41
2023-01-04T11:48:15.337Z,100109.88
2023-01-04T11:49:20.359Z,100121.16
2023-01-04T11:50:42.598Z,100114.00
2023-01-04T11:51:44.838Z,100119.50
2023-01-04T11:52:47.589Z,100119.41
2023-01-04T11:54:00.544Z,100108.75
2023-01-04T11:55:24.797Z,100110.56
2023-01-04T11:56:29.854Z,100105.97
2023-01-04T11:57:32.116Z,100110.56
2023-01-04T11:58:34.552Z,100112.91
2023-01-04T11:59:37.041Z,100104.97
2023-01-04T12:00:49.254Z,100102.03
2023-01-04T12:02:03.737Z,100116.84
2023-01-04T12:03:14.227Z,100102.81
2023-01-04T12:04:20.474Z,100099.50
2023-01-04T12:05:29.458Z,100099.38
2023-01-04T12:06:34.728Z,100095.72
2023-01-04T12:07:36.960Z,100098.34
2023-01-04T12:08:39.514Z,100098.69
2023-01-04T12:09:41.801Z,100105.00
2023-01-04T12:10:44.212Z,100099.78
2023-01-04T12:11:56.208Z,100091.91
2023-01-04T12:13:01.082Z,100099.31
2023-01-04T12:14:05.325Z,100104.63
2023-01-04T12:15:17.056Z,100094.84
2023-01-04T12:16:43.869Z,100085.09
2023-01-04T12:17:53.161Z,100084.38
2023-01-04T12:18:55.651Z,100095.75
2023-01-04T12:20:01.647Z,100095.75
2023-01-04T12:21:04.301Z,100091.47
2023-01-04T12:22:21.105Z,100070.00
2023-01-04T12:23:23.603Z,100077.81
2023-01-04T12:24:31.746Z,100067.50
2023-01-04T12:26:00.940Z,100062.72
2023-01-04T12:27:04.359Z,100057.00
2023-01-04T12:28:06.685Z,100070.28
2023-01-04T12:29:23.868Z,100071.84
2023-01-04T12:30:46.636Z,100064.16
2023-01-04T12:32:11.807Z,100060.63
2023-01-04T12:33:32.175Z,100057.53
2023-01-04T12:34:34.328Z,100048.94
2023-01-04T12:35:59.965Z,100054.16
2023-01-04T12:37:05.939Z,100049.13
2023-01-04T12:38:09.645Z,100050.88
2023-01-04T12:39:14.498Z,100054.19
2023-01-04T12:40:47.747Z,100043.53
2023-01-04T12:42:01.808Z,100041.66
2023-01-04T12:43:22.915Z,100045.03
2023-01-04T12:44:37.267Z,100049.56
2023-01-04T12:45:39.729Z,100040.06
2023-01-04T12:47:00.952Z,100045.84
2023-01-04T12:48:47.917Z,100050.16
2023-01-04T12:49:59.287Z,100038.97
2023-01-04T12:51:31.782Z,100032.09
2023-01-04T12:52:54.752Z,100043.59
2023-01-04T12:54:00.056Z,100032.06
2023-01-04T12:55:21.997Z,100028.84
2023-01-04T12:57:02.573Z,100032.59
2023-01-04T12:59:24.225Z,100030.03
2023-01-04T13:00:08.940Z,100036.56
2023-01-04T13:01:23.730Z,100027.81
2023-01-04T13:02:27.767Z,100021.38
2023-01-04T13:03:30.040Z,100018.03
2023-01-04T13:04:42.683Z,100030.22
2023-01-04T13:05:58.360Z,100025.97